sensor_id;sensor_type;location;lat;lon;timestamp;temperature;humidity
17236;DHT22;8734;59.272;17.780;2023-04-24T00:02:25;6.80;99.90
17236;DHT22;8734;59.272;17.780;2023-04-24T00:04:53;6.80;99.90
17236;DHT22;8734;59.272;17.780;2023-04-24T00:07:21;6.60;99.90
17236;DHT22;8734;59.272;17.780;2023-04-24T00:09:51;6.60;99.90
17236;DHT22;8734;59.272;17.780;2023-04-24T00:12:20;6.60;99.90
17236;DHT22;8734;59.272;17.780;2023-04-24T00:14:48;6.60;99.90
17236;DHT22;8734;59.272;17.780;2023-04-24T00:17:17;6.60;99.90
17236;DHT22;8734;59.272;17.780;2023-04-24T00:19:46;6.60;99.90
17236;DHT22;8734;59.272;17.780;2023-04-24T00:22:14;6.60;99.90
17236;DHT22;8734;59.272;17.780;2023-04-24T00:24:43;6.60;99.90
17236;DHT22;8734;59.272;17.780;2023-04-24T00:27:13;6.70;99.90
17236;DHT22;8734;59.272;17.780;2023-04-24T00:29:41;6.70;99.90
17236;DHT22;8734;59.272;17.780;2023-04-24T00:32:10;6.60;99.90
17236;DHT22;8734;59.272;17.780;2023-04-24T00:34:38;6.70;99.90
17236;DHT22;8734;59.272;17.780;2023-04-24T00:37:07;6.60;99.90
17236;DHT22;8734;59.272;17.780;2023-04-24T00:39:36;6.60;99.90
17236;DHT22;8734;59.272;17.780;2023-04-24T00:42:04;6.70;99.90
17236;DHT22;8734;59.272;17.780;2023-04-24T00:44:34;6.60;99.90
17236;DHT22;8734;59.272;17.780;2023-04-24T00:47:03;6.50;99.90
17236;DHT22;8734;59.272;17.780;2023-04-24T00:49:32;6.40;99.90
17236;DHT22;8734;59.272;17.780;2023-04-24T00:52:00;6.40;99.90
17236;DHT22;8734;59.272;17.780;2023-04-24T00:54:29;6.40;99.90
17236;DHT22;8734;59.272;17.780;2023-04-24T00:56:57;6.40;99.90
17236;DHT22;8734;59.272;17.780;2023-04-24T00:59:27;6.40;99.90
17236;DHT22;8734;59.272;17.780;2023-04-24T01:01:57;6.40;99.90
17236;DHT22;8734;59.272;17.780;2023-04-24T01:04:26;6.30;99.90
17236;DHT22;8734;59.272;17.780;2023-04-24T01:06:55;6.30;99.90
17236;DHT22;8734;59.272;17.780;2023-04-24T01:09:25;6.30;99.90
17236;DHT22;8734;59.272;17.780;2023-04-24T01:11:54;6.20;99.90
17236;DHT22;8734;59.272;17.780;2023-04-24T01:14:23;6.20;99.90
17236;DHT22;8734;59.272;17.780;2023-04-24T01:16:51;6.20;99.90
17236;DHT22;8734;59.272;17.780;2023-04-24T01:19:21;6.20;99.90
17236;DHT22;8734;59.272;17.780;2023-04-24T01:21:51;6.20;99.90
17236;DHT22;8734;59.272;17.780;2023-04-24T01:24:22;6.20;99.90
17236;DHT22;8734;59.272;17.780;2023-04-24T01:26:51;6.10;99.90
17236;DHT22;8734;59.272;17.780;2023-04-24T01:29:19;6.10;99.90
17236;DHT22;8734;59.272;17.780;2023-04-24T01:31:47;6.10;99.90
17236;DHT22;8734;59.272;17.780;2023-04-24T01:34:17;6.10;99.90
17236;DHT22;8734;59.272;17.780;2023-04-24T01:36:45;6.10;99.90
17236;DHT22;8734;59.272;17.780;2023-04-24T01:39:14;6.00;99.90
17236;DHT22;8734;59.272;17.780;2023-04-24T01:41:45;6.00;99.90
17236;DHT22;8734;59.272;17.780;2023-04-24T01:44:13;5.90;99.90
17236;DHT22;8734;59.272;17.780;2023-04-24T01:46:42;5.90;99.90
17236;DHT22;8734;59.272;17.780;2023-04-24T01:49:11;5.90;99.90
17236;DHT22;8734;59.272;17.780;2023-04-24T01:51:39;5.80;99.90
17236;DHT22;8734;59.272;17.780;2023-04-24T01:54:08;5.80;99.90
17236;DHT22;8734;59.272;17.780;2023-04-24T01:56:40;5.70;99.90
17236;DHT22;8734;59.272;17.780;2023-04-24T01:59:11;5.70;99.90
17236;DHT22;8734;59.272;17.780;2023-04-24T02:01:40;5.70;99.90
17236;DHT22;8734;59.272;17.780;2023-04-24T02:04:09;5.70;99.90
17236;DHT22;8734;59.272;17.780;2023-04-24T02:06:37;5.70;99.90
17236;DHT22;8734;59.272;17.780;2023-04-24T02:09:06;5.70;99.90
17236;DHT22;8734;59.272;17.780;2023-04-24T02:11:34;5.70;99.90
17236;DHT22;8734;59.272;17.780;2023-04-24T02:14:02;5.60;99.90
17236;DHT22;8734;59.272;17.780;2023-04-24T02:16:33;5.60;99.90
17236;DHT22;8734;59.272;17.780;2023-04-24T02:19:03;5.50;99.90
17236;DHT22;8734;59.272;17.780;2023-04-24T02:21:31;5.50;99.90
17236;DHT22;8734;59.272;17.780;2023-04-24T02:24:00;5.50;99.90
17236;DHT22;8734;59.272;17.780;2023-04-24T02:26:28;5.40;99.90
17236;DHT22;8734;59.272;17.780;2023-04-24T02:28:58;5.50;99.90
17236;DHT22;8734;59.272;17.780;2023-04-24T02:31:27;5.40;99.90
17236;DHT22;8734;59.272;17.780;2023-04-24T02:33:56;5.40;99.90
17236;DHT22;8734;59.272;17.780;2023-04-24T02:36:25;5.50;99.90
17236;DHT22;8734;59.272;17.780;2023-04-24T02:38:55;5.50;99.90
17236;DHT22;8734;59.272;17.780;2023-04-24T02:41:23;5.50;99.90
17236;DHT22;8734;59.272;17.780;2023-04-24T02:43:51;5.50;99.90
17236;DHT22;8734;59.272;17.780;2023-04-24T02:46:20;5.50;99.90
17236;DHT22;8734;59.272;17.780;2023-04-24T02:48:49;5.40;99.90
17236;DHT22;8734;59.272;17.780;2023-04-24T02:51:18;5.40;99.90
17236;DHT22;8734;59.272;17.780;2023-04-24T02:53:47;5.40;99.90
17236;DHT22;8734;59.272;17.780;2023-04-24T02:56:16;5.40;99.90
17236;DHT22;8734;59.272;17.780;2023-04-24T02:58:44;5.40;99.90
17236;DHT22;8734;59.272;17.780;2023-04-24T03:01:13;5.40;99.90
17236;DHT22;8734;59.272;17.780;2023-04-24T03:03:41;5.30;99.90
17236;DHT22;8734;59.272;17.780;2023-04-24T03:06:10;5.30;99.90
17236;DHT22;8734;59.272;17.780;2023-04-24T03:08:40;5.30;99.90
17236;DHT22;8734;59.272;17.780;2023-04-24T03:11:08;5.40;99.90
17236;DHT22;8734;59.272;17.780;2023-04-24T03:13:37;5.40;99.90
17236;DHT22;8734;59.272;17.780;2023-04-24T03:16:05;5.30;99.90
17236;DHT22;8734;59.272;17.780;2023-04-24T03:18:35;5.30;99.90
17236;DHT22;8734;59.272;17.780;2023-04-24T03:21:03;5.30;99.90
17236;DHT22;8734;59.272;17.780;2023-04-24T03:23:32;5.30;99.90
17236;DHT22;8734;59.272;17.780;2023-04-24T03:26:01;5.30;99.90
17236;DHT22;8734;59.272;17.780;2023-04-24T03:28:30;5.30;99.90
17236;DHT22;8734;59.272;17.780;2023-04-24T03:30:58;5.40;99.90
17236;DHT22;8734;59.272;17.780;2023-04-24T03:33:26;5.40;99.90
17236;DHT22;8734;59.272;17.780;2023-04-24T03:35:54;5.40;99.90
17236;DHT22;8734;59.272;17.780;2023-04-24T03:38:24;5.40;99.90
17236;DHT22;8734;59.272;17.780;2023-04-24T03:40:52;5.40;99.90
17236;DHT22;8734;59.272;17.780;2023-04-24T03:43:22;5.40;99.90
17236;DHT22;8734;59.272;17.780;2023-04-24T03:45:51;5.40;99.90
17236;DHT22;8734;59.272;17.780;2023-04-24T03:48:19;5.40;99.90
17236;DHT22;8734;59.272;17.780;2023-04-24T03:50:47;5.40;99.90
17236;DHT22;8734;59.272;17.780;2023-04-24T03:53:16;5.40;99.90
17236;DHT22;8734;59.272;17.780;2023-04-24T03:55:46;5.40;99.90
17236;DHT22;8734;59.272;17.780;2023-04-24T03:58:14;5.40;99.90
17236;DHT22;8734;59.272;17.780;2023-04-24T04:00:44;5.40;99.90
17236;DHT22;8734;59.272;17.780;2023-04-24T04:03:14;5.30;99.90
17236;DHT22;8734;59.272;17.780;2023-04-24T04:05:43;5.30;99.90
17236;DHT22;8734;59.272;17.780;2023-04-24T04:08:12;5.30;99.90
17236;DHT22;8734;59.272;17.780;2023-04-24T04:10:41;5.40;99.90
17236;DHT22;8734;59.272;17.780;2023-04-24T04:13:09;5.40;99.90
17236;DHT22;8734;59.272;17.780;2023-04-24T04:15:37;5.30;99.90
17236;DHT22;8734;59.272;17.780;2023-04-24T04:18:07;5.20;99.90
17236;DHT22;8734;59.272;17.780;2023-04-24T04:20:35;5.30;99.90
17236;DHT22;8734;59.272;17.780;2023-04-24T04:23:04;5.30;99.90
17236;DHT22;8734;59.272;17.780;2023-04-24T04:25:32;5.30;99.90
17236;DHT22;8734;59.272;17.780;2023-04-24T04:28:01;5.20;99.90
17236;DHT22;8734;59.272;17.780;2023-04-24T04:30:30;5.20;99.90
17236;DHT22;8734;59.272;17.780;2023-04-24T04:32:59;5.20;99.90
17236;DHT22;8734;59.272;17.780;2023-04-24T04:35:29;5.20;99.90
17236;DHT22;8734;59.272;17.780;2023-04-24T04:37:58;5.20;99.90
17236;DHT22;8734;59.272;17.780;2023-04-24T04:40:27;5.20;99.90
17236;DHT22;8734;59.272;17.780;2023-04-24T04:42:56;5.20;99.90
17236;DHT22;8734;59.272;17.780;2023-04-24T04:45:25;5.10;99.90
17236;DHT22;8734;59.272;17.780;2023-04-24T04:47:54;5.00;99.90
17236;DHT22;8734;59.272;17.780;2023-04-24T04:50:23;5.00;99.90
17236;DHT22;8734;59.272;17.780;2023-04-24T04:52:53;5.00;99.90
17236;DHT22;8734;59.272;17.780;2023-04-24T04:55:22;5.00;99.90
17236;DHT22;8734;59.272;17.780;2023-04-24T04:57:51;5.00;99.90
17236;DHT22;8734;59.272;17.780;2023-04-24T05:00:19;5.00;99.90
17236;DHT22;8734;59.272;17.780;2023-04-24T05:02:48;5.00;99.90
17236;DHT22;8734;59.272;17.780;2023-04-24T05:05:17;4.90;99.90
17236;DHT22;8734;59.272;17.780;2023-04-24T05:07:45;4.90;99.90
17236;DHT22;8734;59.272;17.780;2023-04-24T05:10:15;4.90;99.90
17236;DHT22;8734;59.272;17.780;2023-04-24T05:12:43;4.90;99.90
17236;DHT22;8734;59.272;17.780;2023-04-24T05:15:12;4.90;99.90
17236;DHT22;8734;59.272;17.780;2023-04-24T05:17:40;5.00;99.90
17236;DHT22;8734;59.272;17.780;2023-04-24T05:20:09;4.90;99.90
17236;DHT22;8734;59.272;17.780;2023-04-24T05:22:37;4.90;99.90
17236;DHT22;8734;59.272;17.780;2023-04-24T05:25:06;4.90;99.90
17236;DHT22;8734;59.272;17.780;2023-04-24T05:27:36;4.80;99.90
17236;DHT22;8734;59.272;17.780;2023-04-24T05:30:06;4.80;99.90
17236;DHT22;8734;59.272;17.780;2023-04-24T05:32:34;4.80;99.90
17236;DHT22;8734;59.272;17.780;2023-04-24T05:35:03;4.90;99.90
17236;DHT22;8734;59.272;17.780;2023-04-24T05:37:31;4.90;99.90
17236;DHT22;8734;59.272;17.780;2023-04-24T05:39:59;4.80;99.90
17236;DHT22;8734;59.272;17.780;2023-04-24T05:42:28;4.80;99.90
17236;DHT22;8734;59.272;17.780;2023-04-24T05:44:58;4.80;99.90
17236;DHT22;8734;59.272;17.780;2023-04-24T05:47:26;4.90;99.90
17236;DHT22;8734;59.272;17.780;2023-04-24T05:49:54;4.80;99.90
17236;DHT22;8734;59.272;17.780;2023-04-24T05:52:23;4.80;99.90
17236;DHT22;8734;59.272;17.780;2023-04-24T05:54:51;4.90;99.90
17236;DHT22;8734;59.272;17.780;2023-04-24T05:57:19;5.00;99.90
17236;DHT22;8734;59.272;17.780;2023-04-24T05:59:48;4.90;99.90
17236;DHT22;8734;59.272;17.780;2023-04-24T06:02:18;4.90;99.90
17236;DHT22;8734;59.272;17.780;2023-04-24T06:04:46;4.90;99.90
17236;DHT22;8734;59.272;17.780;2023-04-24T06:07:15;5.00;99.90
17236;DHT22;8734;59.272;17.780;2023-04-24T06:09:44;5.00;99.90
17236;DHT22;8734;59.272;17.780;2023-04-24T06:12:12;5.10;99.90
17236;DHT22;8734;59.272;17.780;2023-04-24T06:14:41;5.10;99.90
17236;DHT22;8734;59.272;17.780;2023-04-24T06:17:09;5.00;99.90
17236;DHT22;8734;59.272;17.780;2023-04-24T06:19:39;5.00;99.90
17236;DHT22;8734;59.272;17.780;2023-04-24T06:22:08;5.00;99.90
17236;DHT22;8734;59.272;17.780;2023-04-24T06:24:36;5.10;99.90
17236;DHT22;8734;59.272;17.780;2023-04-24T06:27:05;5.10;99.90
17236;DHT22;8734;59.272;17.780;2023-04-24T06:29:35;5.10;99.90
17236;DHT22;8734;59.272;17.780;2023-04-24T06:32:03;5.20;99.90
17236;DHT22;8734;59.272;17.780;2023-04-24T06:34:31;5.30;99.90
17236;DHT22;8734;59.272;17.780;2023-04-24T06:37:03;5.30;99.90
17236;DHT22;8734;59.272;17.780;2023-04-24T06:39:31;5.30;99.90
17236;DHT22;8734;59.272;17.780;2023-04-24T06:42:00;5.40;99.90
17236;DHT22;8734;59.272;17.780;2023-04-24T06:44:28;5.30;99.90
17236;DHT22;8734;59.272;17.780;2023-04-24T06:46:56;5.40;99.90
17236;DHT22;8734;59.272;17.780;2023-04-24T06:49:25;5.30;99.90
17236;DHT22;8734;59.272;17.780;2023-04-24T06:51:53;5.30;99.90
17236;DHT22;8734;59.272;17.780;2023-04-24T06:54:23;5.40;99.90
17236;DHT22;8734;59.272;17.780;2023-04-24T06:56:51;5.50;99.90
17236;DHT22;8734;59.272;17.780;2023-04-24T06:59:20;5.40;99.90
17236;DHT22;8734;59.272;17.780;2023-04-24T07:01:49;5.40;99.90
17236;DHT22;8734;59.272;17.780;2023-04-24T07:04:21;5.40;99.90
17236;DHT22;8734;59.272;17.780;2023-04-24T07:06:50;5.50;99.90
17236;DHT22;8734;59.272;17.780;2023-04-24T07:09:22;5.50;99.90
17236;DHT22;8734;59.272;17.780;2023-04-24T07:11:53;5.60;99.90
17236;DHT22;8734;59.272;17.780;2023-04-24T07:14:23;5.50;99.90
17236;DHT22;8734;59.272;17.780;2023-04-24T07:16:51;5.60;99.90
17236;DHT22;8734;59.272;17.780;2023-04-24T07:19:19;5.50;99.90
17236;DHT22;8734;59.272;17.780;2023-04-24T07:21:48;5.60;99.90
17236;DHT22;8734;59.272;17.780;2023-04-24T07:24:16;5.60;99.90
17236;DHT22;8734;59.272;17.780;2023-04-24T07:26:48;5.50;99.90
17236;DHT22;8734;59.272;17.780;2023-04-24T07:29:19;5.60;99.90
17236;DHT22;8734;59.272;17.780;2023-04-24T07:31:47;5.60;99.90
17236;DHT22;8734;59.272;17.780;2023-04-24T07:34:16;5.70;99.90
17236;DHT22;8734;59.272;17.780;2023-04-24T07:36:44;5.70;99.90
17236;DHT22;8734;59.272;17.780;2023-04-24T07:39:13;5.70;99.90
17236;DHT22;8734;59.272;17.780;2023-04-24T07:41:41;5.60;99.90
17236;DHT22;8734;59.272;17.780;2023-04-24T07:44:11;5.60;99.90
17236;DHT22;8734;59.272;17.780;2023-04-24T07:46:40;5.60;99.90
17236;DHT22;8734;59.272;17.780;2023-04-24T07:49:08;5.70;99.90
17236;DHT22;8734;59.272;17.780;2023-04-24T07:51:39;5.70;99.90
17236;DHT22;8734;59.272;17.780;2023-04-24T07:54:08;5.70;99.90
17236;DHT22;8734;59.272;17.780;2023-04-24T07:56:37;5.70;99.90
17236;DHT22;8734;59.272;17.780;2023-04-24T07:59:06;5.70;99.90
17236;DHT22;8734;59.272;17.780;2023-04-24T08:01:36;5.80;99.90
17236;DHT22;8734;59.272;17.780;2023-04-24T08:04:04;5.80;99.90
17236;DHT22;8734;59.272;17.780;2023-04-24T08:06:33;5.90;99.90
17236;DHT22;8734;59.272;17.780;2023-04-24T08:09:02;5.90;99.90
17236;DHT22;8734;59.272;17.780;2023-04-24T08:11:30;5.70;99.90
17236;DHT22;8734;59.272;17.780;2023-04-24T08:13:59;5.80;99.90
17236;DHT22;8734;59.272;17.780;2023-04-24T08:16:28;5.90;99.90
17236;DHT22;8734;59.272;17.780;2023-04-24T08:18:58;5.90;99.90
17236;DHT22;8734;59.272;17.780;2023-04-24T08:21:26;5.80;99.90
17236;DHT22;8734;59.272;17.780;2023-04-24T08:23:55;5.80;99.90
17236;DHT22;8734;59.272;17.780;2023-04-24T08:26:23;5.90;99.90
17236;DHT22;8734;59.272;17.780;2023-04-24T08:28:51;6.00;99.90
17236;DHT22;8734;59.272;17.780;2023-04-24T08:31:20;6.10;99.90
17236;DHT22;8734;59.272;17.780;2023-04-24T08:33:50;6.20;99.90
17236;DHT22;8734;59.272;17.780;2023-04-24T08:36:19;6.30;99.90
17236;DHT22;8734;59.272;17.780;2023-04-24T08:38:52;6.30;99.90
17236;DHT22;8734;59.272;17.780;2023-04-24T08:41:21;6.50;99.90
17236;DHT22;8734;59.272;17.780;2023-04-24T08:43:51;6.60;99.90
17236;DHT22;8734;59.272;17.780;2023-04-24T08:46:21;6.50;99.90
17236;DHT22;8734;59.272;17.780;2023-04-24T08:48:50;6.50;99.90
17236;DHT22;8734;59.272;17.780;2023-04-24T08:51:21;6.50;99.90
17236;DHT22;8734;59.272;17.780;2023-04-24T08:53:52;6.40;99.90
17236;DHT22;8734;59.272;17.780;2023-04-24T08:56:22;6.50;99.90
17236;DHT22;8734;59.272;17.780;2023-04-24T08:58:51;6.50;99.90
17236;DHT22;8734;59.272;17.780;2023-04-24T09:01:20;6.50;99.90
17236;DHT22;8734;59.272;17.780;2023-04-24T09:03:49;6.70;99.90
17236;DHT22;8734;59.272;17.780;2023-04-24T09:06:20;6.80;99.90
17236;DHT22;8734;59.272;17.780;2023-04-24T09:08:51;6.80;99.90
17236;DHT22;8734;59.272;17.780;2023-04-24T09:11:21;6.70;99.90
17236;DHT22;8734;59.272;17.780;2023-04-24T09:13:51;6.80;99.90
17236;DHT22;8734;59.272;17.780;2023-04-24T09:16:19;6.80;99.90
17236;DHT22;8734;59.272;17.780;2023-04-24T09:18:50;6.90;99.90
17236;DHT22;8734;59.272;17.780;2023-04-24T09:21:22;6.90;99.90
17236;DHT22;8734;59.272;17.780;2023-04-24T09:24:01;6.80;99.90
17236;DHT22;8734;59.272;17.780;2023-04-24T09:26:30;6.90;99.90
17236;DHT22;8734;59.272;17.780;2023-04-24T09:29:03;7.20;99.90
17236;DHT22;8734;59.272;17.780;2023-04-24T09:31:31;7.20;99.90
17236;DHT22;8734;59.272;17.780;2023-04-24T09:34:01;7.10;99.90
17236;DHT22;8734;59.272;17.780;2023-04-24T09:36:35;7.10;99.90
17236;DHT22;8734;59.272;17.780;2023-04-24T09:39:05;7.00;99.90
17236;DHT22;8734;59.272;17.780;2023-04-24T09:41:35;7.10;99.90
17236;DHT22;8734;59.272;17.780;2023-04-24T09:44:12;7.20;99.90
17236;DHT22;8734;59.272;17.780;2023-04-24T09:46:42;7.20;99.90
17236;DHT22;8734;59.272;17.780;2023-04-24T09:49:13;7.20;99.90
17236;DHT22;8734;59.272;17.780;2023-04-24T09:51:43;7.20;99.90
17236;DHT22;8734;59.272;17.780;2023-04-24T09:54:14;7.30;99.90
17236;DHT22;8734;59.272;17.780;2023-04-24T09:56:44;7.40;99.90
17236;DHT22;8734;59.272;17.780;2023-04-24T09:59:13;7.30;99.90
17236;DHT22;8734;59.272;17.780;2023-04-24T10:01:42;7.20;99.90
17236;DHT22;8734;59.272;17.780;2023-04-24T10:04:18;7.10;99.90
17236;DHT22;8734;59.272;17.780;2023-04-24T10:06:49;7.10;99.90
17236;DHT22;8734;59.272;17.780;2023-04-24T10:09:19;7.10;99.90
17236;DHT22;8734;59.272;17.780;2023-04-24T10:11:49;7.10;99.90
17236;DHT22;8734;59.272;17.780;2023-04-24T10:14:19;7.00;99.90
17236;DHT22;8734;59.272;17.780;2023-04-24T10:16:48;7.00;99.90
17236;DHT22;8734;59.272;17.780;2023-04-24T10:19:17;7.00;99.90
17236;DHT22;8734;59.272;17.780;2023-04-24T10:21:48;6.90;99.90
17236;DHT22;8734;59.272;17.780;2023-04-24T10:24:18;6.80;99.90
17236;DHT22;8734;59.272;17.780;2023-04-24T10:26:47;6.80;99.90
17236;DHT22;8734;59.272;17.780;2023-04-24T10:29:18;6.80;99.90
17236;DHT22;8734;59.272;17.780;2023-04-24T10:31:48;6.90;99.90
17236;DHT22;8734;59.272;17.780;2023-04-24T10:34:17;7.00;99.90
17236;DHT22;8734;59.272;17.780;2023-04-24T10:36:51;7.10;99.90
17236;DHT22;8734;59.272;17.780;2023-04-24T10:39:23;7.30;99.90
17236;DHT22;8734;59.272;17.780;2023-04-24T10:41:53;7.50;99.90
17236;DHT22;8734;59.272;17.780;2023-04-24T10:44:24;7.40;99.90
17236;DHT22;8734;59.272;17.780;2023-04-24T10:46:55;7.40;99.90
17236;DHT22;8734;59.272;17.780;2023-04-24T10:49:32;7.20;99.90
17236;DHT22;8734;59.272;17.780;2023-04-24T10:52:03;7.10;99.90
17236;DHT22;8734;59.272;17.780;2023-04-24T10:54:36;7.10;99.90
17236;DHT22;8734;59.272;17.780;2023-04-24T10:57:26;7.10;99.90
17236;DHT22;8734;59.272;17.780;2023-04-24T11:00:18;7.00;99.90
17236;DHT22;8734;59.272;17.780;2023-04-24T11:02:47;6.90;99.90
17236;DHT22;8734;59.272;17.780;2023-04-24T11:05:18;6.90;99.90
17236;DHT22;8734;59.272;17.780;2023-04-24T11:08:13;7.00;99.90
17236;DHT22;8734;59.272;17.780;2023-04-24T11:10:44;7.10;99.90
17236;DHT22;8734;59.272;17.780;2023-04-24T11:13:15;7.10;99.90
17236;DHT22;8734;59.272;17.780;2023-04-24T11:15:44;7.10;99.90
17236;DHT22;8734;59.272;17.780;2023-04-24T11:18:15;7.10;99.90
17236;DHT22;8734;59.272;17.780;2023-04-24T11:20:43;7.20;99.90
17236;DHT22;8734;59.272;17.780;2023-04-24T11:23:14;7.20;99.90
17236;DHT22;8734;59.272;17.780;2023-04-24T11:25:42;7.20;99.90
17236;DHT22;8734;59.272;17.780;2023-04-24T11:28:15;7.20;99.90
17236;DHT22;8734;59.272;17.780;2023-04-24T11:30:44;7.30;99.90
17236;DHT22;8734;59.272;17.780;2023-04-24T11:33:20;7.30;99.90
17236;DHT22;8734;59.272;17.780;2023-04-24T11:35:48;7.40;99.90
17236;DHT22;8734;59.272;17.780;2023-04-24T11:38:20;7.40;99.90
17236;DHT22;8734;59.272;17.780;2023-04-24T11:40:51;7.50;99.90
17236;DHT22;8734;59.272;17.780;2023-04-24T11:43:20;7.50;99.90
17236;DHT22;8734;59.272;17.780;2023-04-24T11:45:49;7.60;99.90
17236;DHT22;8734;59.272;17.780;2023-04-24T11:48:19;7.60;99.90
17236;DHT22;8734;59.272;17.780;2023-04-24T11:50:50;7.50;99.90
17236;DHT22;8734;59.272;17.780;2023-04-24T11:53:20;7.50;99.90
17236;DHT22;8734;59.272;17.780;2023-04-24T11:55:48;7.50;99.90
17236;DHT22;8734;59.272;17.780;2023-04-24T11:58:20;7.60;99.90
17236;DHT22;8734;59.272;17.780;2023-04-24T12:00:56;7.70;99.90
17236;DHT22;8734;59.272;17.780;2023-04-24T12:03:25;7.80;99.90
17236;DHT22;8734;59.272;17.780;2023-04-24T12:06:04;7.80;99.90
17236;DHT22;8734;59.272;17.780;2023-04-24T12:08:37;7.80;99.90
17236;DHT22;8734;59.272;17.780;2023-04-24T12:11:06;7.90;99.90
17236;DHT22;8734;59.272;17.780;2023-04-24T12:13:35;8.00;99.90
17236;DHT22;8734;59.272;17.780;2023-04-24T12:16:04;7.90;99.90
17236;DHT22;8734;59.272;17.780;2023-04-24T12:18:33;8.00;99.90
17236;DHT22;8734;59.272;17.780;2023-04-24T12:21:15;8.00;99.90
17236;DHT22;8734;59.272;17.780;2023-04-24T12:23:48;7.80;99.90
17236;DHT22;8734;59.272;17.780;2023-04-24T12:26:18;7.90;99.90
17236;DHT22;8734;59.272;17.780;2023-04-24T12:28:48;8.00;99.90
17236;DHT22;8734;59.272;17.780;2023-04-24T12:31:17;8.00;99.90
17236;DHT22;8734;59.272;17.780;2023-04-24T12:33:45;8.00;99.90
17236;DHT22;8734;59.272;17.780;2023-04-24T12:36:14;8.20;99.90
17236;DHT22;8734;59.272;17.780;2023-04-24T12:38:44;8.20;99.90
17236;DHT22;8734;59.272;17.780;2023-04-24T12:41:14;8.30;99.90
17236;DHT22;8734;59.272;17.780;2023-04-24T12:43:52;8.30;99.90
17236;DHT22;8734;59.272;17.780;2023-04-24T12:46:22;8.30;99.90
17236;DHT22;8734;59.272;17.780;2023-04-24T12:48:51;8.20;99.90
17236;DHT22;8734;59.272;17.780;2023-04-24T12:51:19;8.20;99.90
17236;DHT22;8734;59.272;17.780;2023-04-24T12:53:48;8.10;99.90
17236;DHT22;8734;59.272;17.780;2023-04-24T12:56:17;8.30;99.90
17236;DHT22;8734;59.272;17.780;2023-04-24T12:58:46;8.30;99.90
17236;DHT22;8734;59.272;17.780;2023-04-24T13:01:14;8.30;99.90
17236;DHT22;8734;59.272;17.780;2023-04-24T13:03:43;8.20;99.90
17236;DHT22;8734;59.272;17.780;2023-04-24T13:06:12;8.20;99.90
17236;DHT22;8734;59.272;17.780;2023-04-24T13:08:40;8.10;99.90
17236;DHT22;8734;59.272;17.780;2023-04-24T13:11:09;7.90;99.90
17236;DHT22;8734;59.272;17.780;2023-04-24T13:13:38;8.10;99.90
17236;DHT22;8734;59.272;17.780;2023-04-24T13:16:07;8.10;99.90
17236;DHT22;8734;59.272;17.780;2023-04-24T13:18:36;8.10;99.90
17236;DHT22;8734;59.272;17.780;2023-04-24T13:21:04;8.10;99.90
17236;DHT22;8734;59.272;17.780;2023-04-24T13:23:32;8.00;99.90
17236;DHT22;8734;59.272;17.780;2023-04-24T13:26:01;8.00;99.90
17236;DHT22;8734;59.272;17.780;2023-04-24T13:28:30;8.00;99.90
17236;DHT22;8734;59.272;17.780;2023-04-24T13:30:59;8.00;99.90
17236;DHT22;8734;59.272;17.780;2023-04-24T13:33:29;8.00;99.90
17236;DHT22;8734;59.272;17.780;2023-04-24T13:35:57;7.90;99.90
17236;DHT22;8734;59.272;17.780;2023-04-24T13:38:25;7.70;99.90
17236;DHT22;8734;59.272;17.780;2023-04-24T13:40:53;7.70;99.90
17236;DHT22;8734;59.272;17.780;2023-04-24T13:43:22;7.70;99.90
17236;DHT22;8734;59.272;17.780;2023-04-24T13:45:50;7.50;99.90
17236;DHT22;8734;59.272;17.780;2023-04-24T13:48:20;7.50;99.90
17236;DHT22;8734;59.272;17.780;2023-04-24T13:50:48;7.50;99.90
17236;DHT22;8734;59.272;17.780;2023-04-24T13:53:17;7.50;99.90
17236;DHT22;8734;59.272;17.780;2023-04-24T13:55:45;7.50;99.90
17236;DHT22;8734;59.272;17.780;2023-04-24T13:58:13;7.50;99.90
17236;DHT22;8734;59.272;17.780;2023-04-24T14:00:42;7.50;99.90
17236;DHT22;8734;59.272;17.780;2023-04-24T14:03:10;7.50;99.90
17236;DHT22;8734;59.272;17.780;2023-04-24T14:05:40;7.60;99.90
17236;DHT22;8734;59.272;17.780;2023-04-24T14:08:08;7.50;99.90
17236;DHT22;8734;59.272;17.780;2023-04-24T14:10:37;7.50;99.90
17236;DHT22;8734;59.272;17.780;2023-04-24T14:13:05;7.40;99.90
17236;DHT22;8734;59.272;17.780;2023-04-24T14:15:35;7.40;99.90
17236;DHT22;8734;59.272;17.780;2023-04-24T14:18:05;7.40;99.90
17236;DHT22;8734;59.272;17.780;2023-04-24T14:20:33;7.30;99.90
17236;DHT22;8734;59.272;17.780;2023-04-24T14:23:03;7.30;99.90
17236;DHT22;8734;59.272;17.780;2023-04-24T14:25:32;7.20;99.90
17236;DHT22;8734;59.272;17.780;2023-04-24T14:28:00;7.20;99.90
17236;DHT22;8734;59.272;17.780;2023-04-24T14:30:28;7.30;99.90
17236;DHT22;8734;59.272;17.780;2023-04-24T14:32:58;7.20;99.90
17236;DHT22;8734;59.272;17.780;2023-04-24T14:35:26;7.00;99.90
17236;DHT22;8734;59.272;17.780;2023-04-24T14:37:57;7.00;99.90
17236;DHT22;8734;59.272;17.780;2023-04-24T14:40:27;6.90;99.90
17236;DHT22;8734;59.272;17.780;2023-04-24T14:43:16;6.80;99.90
17236;DHT22;8734;59.272;17.780;2023-04-24T14:45:45;6.70;99.90
17236;DHT22;8734;59.272;17.780;2023-04-24T14:48:13;6.60;99.90
17236;DHT22;8734;59.272;17.780;2023-04-24T14:50:43;6.70;99.90
17236;DHT22;8734;59.272;17.780;2023-04-24T14:53:12;6.70;99.90
17236;DHT22;8734;59.272;17.780;2023-04-24T14:55:42;6.80;99.90
17236;DHT22;8734;59.272;17.780;2023-04-24T14:58:10;6.80;99.90
17236;DHT22;8734;59.272;17.780;2023-04-24T15:00:39;6.60;99.90
17236;DHT22;8734;59.272;17.780;2023-04-24T15:03:07;6.60;99.90
17236;DHT22;8734;59.272;17.780;2023-04-24T15:05:36;6.60;99.90
17236;DHT22;8734;59.272;17.780;2023-04-24T15:08:05;6.50;99.90
17236;DHT22;8734;59.272;17.780;2023-04-24T15:10:33;6.30;99.90
17236;DHT22;8734;59.272;17.780;2023-04-24T15:13:03;6.10;99.90
17236;DHT22;8734;59.272;17.780;2023-04-24T15:15:32;6.10;99.90
17236;DHT22;8734;59.272;17.780;2023-04-24T15:18:00;6.10;99.90
17236;DHT22;8734;59.272;17.780;2023-04-24T15:20:28;6.20;99.90
17236;DHT22;8734;59.272;17.780;2023-04-24T15:22:57;6.20;99.90
17236;DHT22;8734;59.272;17.780;2023-04-24T15:25:26;6.10;99.90
17236;DHT22;8734;59.272;17.780;2023-04-24T15:27:55;6.10;99.90
17236;DHT22;8734;59.272;17.780;2023-04-24T15:30:26;6.10;99.90
17236;DHT22;8734;59.272;17.780;2023-04-24T15:32:54;6.10;99.90
17236;DHT22;8734;59.272;17.780;2023-04-24T15:35:22;6.10;99.90
17236;DHT22;8734;59.272;17.780;2023-04-24T15:37:51;6.10;99.90
17236;DHT22;8734;59.272;17.780;2023-04-24T15:40:19;6.20;99.90
17236;DHT22;8734;59.272;17.780;2023-04-24T15:42:47;6.20;99.90
17236;DHT22;8734;59.272;17.780;2023-04-24T15:45:16;6.10;99.90
17236;DHT22;8734;59.272;17.780;2023-04-24T15:47:46;6.10;99.90
17236;DHT22;8734;59.272;17.780;2023-04-24T15:50:14;6.10;99.90
17236;DHT22;8734;59.272;17.780;2023-04-24T15:52:43;6.10;99.90
17236;DHT22;8734;59.272;17.780;2023-04-24T15:55:11;6.10;99.90
17236;DHT22;8734;59.272;17.780;2023-04-24T15:57:40;6.00;99.90
17236;DHT22;8734;59.272;17.780;2023-04-24T16:00:09;5.90;99.90